sensor_id;sensor_type;location;lat;lon;timestamp;pressure;altitude;pressure_sealevel;temperature;humidity
69850;BME280;57144;39.652;-75.770;2022-10-16T00:02:19;100603.39;;;15.19;68.42
69850;BME280;57144;39.652;-75.770;2022-10-16T00:04:49;100603.21;;;15.12;68.42
69850;BME280;57144;39.652;-75.770;2022-10-16T00:07:20;100601.45;;;14.89;69.18
69850;BME280;57144;39.652;-75.770;2022-10-16T00:09:50;100604.36;;;14.37;71.25
69850;BME280;57144;39.652;-75.770;2022-10-16T00:12:21;100608.77;;;14.37;71.65
69850;BME280;57144;39.652;-75.770;2022-10-16T00:14:51;100609.49;;;14.49;71.86
69850;BME280;57144;39.652;-75.770;2022-10-16T00:17:22;100607.41;;;14.33;72.21
69850;BME280;57144;39.652;-75.770;2022-10-16T00:19:52;100604.76;;;14.15;72.79
69850;BME280;57144;39.652;-75.770;2022-10-16T00:22:23;100608.68;;;14.23;72.59
69850;BME280;57144;39.652;-75.770;2022-10-16T00:24:53;100608.39;;;14.66;71.19
69850;BME280;57144;39.652;-75.770;2022-10-16T00:27:24;100607.22;;;14.42;72.16
69850;BME280;57144;39.652;-75.770;2022-10-16T00:29:54;100607.43;;;14.26;72.94
69850;BME280;57144;39.652;-75.770;2022-10-16T00:32:25;100607.68;;;14.15;73.04
69850;BME280;57144;39.652;-75.770;2022-10-16T00:34:55;100609.85;;;14.11;72.99
69850;BME280;57144;39.652;-75.770;2022-10-16T00:37:25;100609.72;;;14.13;72.49
69850;BME280;57144;39.652;-75.770;2022-10-16T00:39:56;100614.40;;;14.18;72.46
69850;BME280;57144;39.652;-75.770;2022-10-16T00:42:26;100621.11;;;14.14;72.52
69850;BME280;57144;39.652;-75.770;2022-10-16T00:44:58;100630.85;;;13.80;73.61
69850;BME280;57144;39.652;-75.770;2022-10-16T00:47:31;100631.31;;;13.84;73.75
69850;BME280;57144;39.652;-75.770;2022-10-16T00:50:02;100627.70;;;14.00;73.28
69850;BME280;57144;39.652;-75.770;2022-10-16T00:52:28;100627.67;;;13.83;74.26
69850;BME280;57144;39.652;-75.770;2022-10-16T00:55:00;100628.97;;;13.77;74.45
69850;BME280;57144;39.652;-75.770;2022-10-16T00:57:29;100631.67;;;13.73;74.72
69850;BME280;57144;39.652;-75.770;2022-10-16T01:00:00;100632.73;;;13.64;75.05
69850;BME280;57144;39.652;-75.770;2022-10-16T01:02:30;100633.46;;;13.60;75.33
69850;BME280;57144;39.652;-75.770;2022-10-16T01:05:01;100633.51;;;13.62;75.08
69850;BME280;57144;39.652;-75.770;2022-10-16T01:07:39;100631.62;;;13.73;74.55
69850;BME280;57144;39.652;-75.770;2022-10-16T01:10:08;100635.80;;;13.16;76.13
69850;BME280;57144;39.652;-75.770;2022-10-16T01:12:40;100641.76;;;13.07;77.50
69850;BME280;57144;39.652;-75.770;2022-10-16T01:15:10;100640.46;;;13.30;76.71
69850;BME280;57144;39.652;-75.770;2022-10-16T01:17:37;100640.80;;;13.11;77.23
69850;BME280;57144;39.652;-75.770;2022-10-16T01:20:10;100638.29;;;13.17;77.29
69850;BME280;57144;39.652;-75.770;2022-10-16T01:22:44;100639.94;;;13.20;77.11
69850;BME280;57144;39.652;-75.770;2022-10-16T01:25:12;100641.92;;;13.26;76.40
69850;BME280;57144;39.652;-75.770;2022-10-16T01:27:36;100642.36;;;13.24;76.63
69850;BME280;57144;39.652;-75.770;2022-10-16T01:30:10;100644.91;;;13.28;76.06
69850;BME280;57144;39.652;-75.770;2022-10-16T01:32:39;100649.36;;;13.21;75.63
69850;BME280;57144;39.652;-75.770;2022-10-16T01:35:11;100650.11;;;13.41;74.71
69850;BME280;57144;39.652;-75.770;2022-10-16T01:37:40;100652.37;;;13.45;74.31
69850;BME280;57144;39.652;-75.770;2022-10-16T01:40:11;100654.21;;;13.36;75.54
69850;BME280;57144;39.652;-75.770;2022-10-16T01:42:41;100658.30;;;13.33;74.96
69850;BME280;57144;39.652;-75.770;2022-10-16T01:45:11;100657.51;;;13.24;75.49
69850;BME280;57144;39.652;-75.770;2022-10-16T01:47:40;100663.66;;;13.11;76.25
69850;BME280;57144;39.652;-75.770;2022-10-16T01:50:10;100666.85;;;13.05;76.63
69850;BME280;57144;39.652;-75.770;2022-10-16T01:52:44;100668.54;;;13.19;76.00
69850;BME280;57144;39.652;-75.770;2022-10-16T01:55:14;100669.31;;;13.19;75.59
69850;BME280;57144;39.652;-75.770;2022-10-16T01:57:45;100668.81;;;13.01;76.08
69850;BME280;57144;39.652;-75.770;2022-10-16T02:00:14;100668.90;;;13.24;75.51
69850;BME280;57144;39.652;-75.770;2022-10-16T02:02:46;100665.76;;;13.05;76.39
69850;BME280;57144;39.652;-75.770;2022-10-16T02:05:18;100667.11;;;13.26;75.63
69850;BME280;57144;39.652;-75.770;2022-10-16T02:07:44;100667.29;;;12.94;77.15
69850;BME280;57144;39.652;-75.770;2022-10-16T02:10:15;100672.09;;;13.02;76.87
69850;BME280;57144;39.652;-75.770;2022-10-16T02:12:50;100676.65;;;12.95;77.32
69850;BME280;57144;39.652;-75.770;2022-10-16T02:15:16;100678.87;;;13.04;77.33
69850;BME280;57144;39.652;-75.770;2022-10-16T02:17:46;100679.78;;;12.96;77.65
69850;BME280;57144;39.652;-75.770;2022-10-16T02:20:16;100680.78;;;13.09;77.95
69850;BME280;57144;39.652;-75.770;2022-10-16T02:22:48;100681.51;;;12.87;78.85
69850;BME280;57144;39.652;-75.770;2022-10-16T02:25:22;100682.11;;;13.01;78.54
69850;BME280;57144;39.652;-75.770;2022-10-16T02:27:53;100685.79;;;12.88;79.28
69850;BME280;57144;39.652;-75.770;2022-10-16T02:30:24;100689.39;;;12.98;79.02
69850;BME280;57144;39.652;-75.770;2022-10-16T02:32:50;100687.81;;;12.79;79.96
69850;BME280;57144;39.652;-75.770;2022-10-16T02:35:21;100693.20;;;12.60;80.82
69850;BME280;57144;39.652;-75.770;2022-10-16T02:37:51;100692.21;;;12.65;81.00
69850;BME280;57144;39.652;-75.770;2022-10-16T02:40:21;100692.68;;;12.61;81.04
69850;BME280;57144;39.652;-75.770;2022-10-16T02:42:52;100694.47;;;12.53;81.36
69850;BME280;57144;39.652;-75.770;2022-10-16T02:45:22;100694.44;;;12.47;81.94
69850;BME280;57144;39.652;-75.770;2022-10-16T02:47:52;100694.58;;;12.29;82.67
69850;BME280;57144;39.652;-75.770;2022-10-16T02:50:23;100697.79;;;12.23;82.99
69850;BME280;57144;39.652;-75.770;2022-10-16T02:52:53;100699.04;;;12.19;83.02
69850;BME280;57144;39.652;-75.770;2022-10-16T02:55:24;100696.98;;;12.29;82.66
69850;BME280;57144;39.652;-75.770;2022-10-16T02:57:54;100700.14;;;12.42;82.54
69850;BME280;57144;39.652;-75.770;2022-10-16T03:00:25;100700.78;;;12.24;83.12
69850;BME280;57144;39.652;-75.770;2022-10-16T03:02:55;100702.00;;;12.13;83.62
69850;BME280;57144;39.652;-75.770;2022-10-16T03:05:25;100702.44;;;12.11;83.81
69850;BME280;57144;39.652;-75.770;2022-10-16T03:07:56;100705.14;;;12.14;83.68
69850;BME280;57144;39.652;-75.770;2022-10-16T03:10:27;100703.32;;;12.08;83.56
69850;BME280;57144;39.652;-75.770;2022-10-16T03:12:57;100698.44;;;12.24;82.66
69850;BME280;57144;39.652;-75.770;2022-10-16T03:15:27;100703.87;;;12.08;83.01
69850;BME280;57144;39.652;-75.770;2022-10-16T03:17:58;100701.76;;;12.08;83.64
69850;BME280;57144;39.652;-75.770;2022-10-16T03:20:28;100704.60;;;12.16;83.34
69850;BME280;57144;39.652;-75.770;2022-10-16T03:22:59;100704.05;;;12.15;83.37
69850;BME280;57144;39.652;-75.770;2022-10-16T03:25:29;100702.81;;;12.09;83.68
69850;BME280;57144;39.652;-75.770;2022-10-16T03:28:00;100698.13;;;12.13;83.11
69850;BME280;57144;39.652;-75.770;2022-10-16T03:30:31;100698.74;;;12.01;83.43
69850;BME280;57144;39.652;-75.770;2022-10-16T03:33:01;100696.16;;;12.18;82.82
69850;BME280;57144;39.652;-75.770;2022-10-16T03:35:32;100695.51;;;12.35;81.77
69850;BME280;57144;39.652;-75.770;2022-10-16T03:38:02;100695.06;;;12.24;83.76
69850;BME280;57144;39.652;-75.770;2022-10-16T03:40:32;100693.89;;;12.33;83.16
69850;BME280;57144;39.652;-75.770;2022-10-16T03:43:03;100695.69;;;12.15;83.72
69850;BME280;57144;39.652;-75.770;2022-10-16T03:45:34;100695.36;;;12.08;83.50
69850;BME280;57144;39.652;-75.770;2022-10-16T03:48:04;100692.45;;;12.18;84.67
69850;BME280;57144;39.652;-75.770;2022-10-16T03:50:35;100686.12;;;12.19;84.39
69850;BME280;57144;39.652;-75.770;2022-10-16T03:53:05;100686.66;;;12.23;83.78
69850;BME280;57144;39.652;-75.770;2022-10-16T03:55:36;100687.85;;;12.31;83.56
69850;BME280;57144;39.652;-75.770;2022-10-16T03:58:06;100689.37;;;12.34;84.02
69850;BME280;57144;39.652;-75.770;2022-10-16T04:00:40;100692.69;;;12.41;83.11
69850;BME280;57144;39.652;-75.770;2022-10-16T04:03:08;100692.88;;;12.32;84.48
69850;BME280;57144;39.652;-75.770;2022-10-16T04:05:39;100694.38;;;12.26;86.29
69850;BME280;57144;39.652;-75.770;2022-10-16T04:08:08;100697.56;;;12.07;86.57
69850;BME280;57144;39.652;-75.770;2022-10-16T04:10:39;100697.10;;;12.14;86.25
69850;BME280;57144;39.652;-75.770;2022-10-16T04:13:10;100696.87;;;11.73;90.37
69850;BME280;57144;39.652;-75.770;2022-10-16T04:15:40;100702.30;;;11.71;91.82
69850;BME280;57144;39.652;-75.770;2022-10-16T04:18:10;100705.70;;;11.62;89.99
69850;BME280;57144;39.652;-75.770;2022-10-16T04:20:41;100706.76;;;11.81;89.12
69850;BME280;57144;39.652;-75.770;2022-10-16T04:23:11;100704.31;;;11.71;88.90
69850;BME280;57144;39.652;-75.770;2022-10-16T04:25:42;100705.81;;;11.71;88.69
69850;BME280;57144;39.652;-75.770;2022-10-16T04:28:12;100706.37;;;11.71;88.37
69850;BME280;57144;39.652;-75.770;2022-10-16T04:30:43;100701.88;;;11.61;88.88
69850;BME280;57144;39.652;-75.770;2022-10-16T04:33:13;100698.40;;;11.64;88.60
69850;BME280;57144;39.652;-75.770;2022-10-16T04:35:43;100695.79;;;11.62;89.06
69850;BME280;57144;39.652;-75.770;2022-10-16T04:38:14;100694.07;;;11.66;88.90
69850;BME280;57144;39.652;-75.770;2022-10-16T04:40:44;100695.97;;;11.79;88.70
69850;BME280;57144;39.652;-75.770;2022-10-16T04:43:15;100689.33;;;11.69;89.30
69850;BME280;57144;39.652;-75.770;2022-10-16T04:45:45;100688.77;;;11.34;91.27
69850;BME280;57144;39.652;-75.770;2022-10-16T04:48:16;100686.37;;;11.59;89.89
69850;BME280;57144;39.652;-75.770;2022-10-16T04:50:46;100689.66;;;11.51;89.27
69850;BME280;57144;39.652;-75.770;2022-10-16T04:53:17;100685.80;;;11.57;88.80
69850;BME280;57144;39.652;-75.770;2022-10-16T04:55:47;100681.18;;;11.39;89.88
69850;BME280;57144;39.652;-75.770;2022-10-16T04:58:18;100674.86;;;11.41;90.40
69850;BME280;57144;39.652;-75.770;2022-10-16T05:00:49;100676.07;;;11.55;89.50
69850;BME280;57144;39.652;-75.770;2022-10-16T05:03:19;100678.68;;;11.35;90.62
69850;BME280;57144;39.652;-75.770;2022-10-16T05:05:49;100678.76;;;11.30;91.17
69850;BME280;57144;39.652;-75.770;2022-10-16T05:08:20;100682.09;;;11.29;91.56
69850;BME280;57144;39.652;-75.770;2022-10-16T05:10:50;100688.00;;;11.19;91.32
69850;BME280;57144;39.652;-75.770;2022-10-16T05:13:21;100686.80;;;10.87;92.73
69850;BME280;57144;39.652;-75.770;2022-10-16T05:15:51;100693.45;;;11.03;91.48
69850;BME280;57144;39.652;-75.770;2022-10-16T05:18:22;100695.03;;;10.99;91.28
69850;BME280;57144;39.652;-75.770;2022-10-16T05:20:52;100697.25;;;11.15;90.66
69850;BME280;57144;39.652;-75.770;2022-10-16T05:23:23;100692.32;;;11.03;91.95
69850;BME280;57144;39.652;-75.770;2022-10-16T05:25:54;100685.60;;;11.22;90.68
69850;BME280;57144;39.652;-75.770;2022-10-16T05:28:24;100682.00;;;11.33;91.02
69850;BME280;57144;39.652;-75.770;2022-10-16T05:30:54;100682.98;;;11.31;90.75
69850;BME280;57144;39.652;-75.770;2022-10-16T05:33:25;100684.90;;;11.15;91.20
69850;BME280;57144;39.652;-75.770;2022-10-16T05:35:55;100683.68;;;11.04;92.16
69850;BME280;57144;39.652;-75.770;2022-10-16T05:38:26;100677.13;;;11.15;92.96
69850;BME280;57144;39.652;-75.770;2022-10-16T05:40:56;100673.90;;;11.15;93.25
69850;BME280;57144;39.652;-75.770;2022-10-16T05:43:27;100667.15;;;10.60;95.42
69850;BME280;57144;39.652;-75.770;2022-10-16T05:45:59;100670.80;;;11.17;94.06
69850;BME280;57144;39.652;-75.770;2022-10-16T05:48:28;100664.79;;;11.32;93.50
69850;BME280;57144;39.652;-75.770;2022-10-16T05:51:00;100673.71;;;11.30;94.08
69850;BME280;57144;39.652;-75.770;2022-10-16T05:53:31;100677.62;;;11.23;93.87
69850;BME280;57144;39.652;-75.770;2022-10-16T05:56:01;100673.62;;;11.01;95.03
69850;BME280;57144;39.652;-75.770;2022-10-16T05:58:32;100673.25;;;10.93;96.08
69850;BME280;57144;39.652;-75.770;2022-10-16T06:01:03;100674.32;;;10.90;95.56
69850;BME280;57144;39.652;-75.770;2022-10-16T06:03:31;100675.18;;;10.91;95.95
69850;BME280;57144;39.652;-75.770;2022-10-16T06:06:08;100665.87;;;11.04;94.29
69850;BME280;57144;39.652;-75.770;2022-10-16T06:08:32;100663.97;;;11.17;94.18
69850;BME280;57144;39.652;-75.770;2022-10-16T06:11:05;100663.76;;;11.05;94.63
69850;BME280;57144;39.652;-75.770;2022-10-16T06:13:33;100668.08;;;10.89;97.21
69850;BME280;57144;39.652;-75.770;2022-10-16T06:16:05;100672.22;;;10.32;99.41
69850;BME280;57144;39.652;-75.770;2022-10-16T06:18:34;100672.26;;;10.70;96.79
69850;BME280;57144;39.652;-75.770;2022-10-16T06:21:08;100672.57;;;10.68;97.13
69850;BME280;57144;39.652;-75.770;2022-10-16T06:23:36;100668.72;;;10.50;98.54
69850;BME280;57144;39.652;-75.770;2022-10-16T06:26:07;100667.05;;;10.40;98.80
69850;BME280;57144;39.652;-75.770;2022-10-16T06:28:37;100670.41;;;10.14;100.00
69850;BME280;57144;39.652;-75.770;2022-10-16T06:31:09;100670.34;;;10.52;99.22
69850;BME280;57144;39.652;-75.770;2022-10-16T06:33:38;100668.79;;;10.45;99.21
69850;BME280;57144;39.652;-75.770;2022-10-16T06:36:10;100674.77;;;10.39;99.61
69850;BME280;57144;39.652;-75.770;2022-10-16T06:38:39;100673.53;;;10.57;98.02
69850;BME280;57144;39.652;-75.770;2022-10-16T06:41:12;100668.61;;;10.63;97.59
69850;BME280;57144;39.652;-75.770;2022-10-16T06:43:40;100671.21;;;10.63;97.71
69850;BME280;57144;39.652;-75.770;2022-10-16T06:46:12;100673.17;;;10.75;97.54
69850;BME280;57144;39.652;-75.770;2022-10-16T06:48:41;100675.42;;;10.47;98.61
69850;BME280;57144;39.652;-75.770;2022-10-16T06:51:13;100677.41;;;10.43;99.31
69850;BME280;57144;39.652;-75.770;2022-10-16T06:53:44;100674.25;;;10.42;99.41
69850;BME280;57144;39.652;-75.770;2022-10-16T06:56:14;100673.18;;;10.36;99.21
69850;BME280;57144;39.652;-75.770;2022-10-16T06:58:44;100670.34;;;10.47;98.45
69850;BME280;57144;39.652;-75.770;2022-10-16T07:01:15;100671.10;;;10.64;98.37
69850;BME280;57144;39.652;-75.770;2022-10-16T07:03:45;100670.81;;;10.79;98.89
69850;BME280;57144;39.652;-75.770;2022-10-16T07:06:17;100672.91;;;10.63;99.89
69850;BME280;57144;39.652;-75.770;2022-10-16T07:08:47;100678.68;;;10.47;100.00
69850;BME280;57144;39.652;-75.770;2022-10-16T07:11:18;100676.21;;;10.39;100.00
69850;BME280;57144;39.652;-75.770;2022-10-16T07:13:47;100674.31;;;10.08;100.00
69850;BME280;57144;39.652;-75.770;2022-10-16T07:16:19;100675.70;;;10.16;100.00
69850;BME280;57144;39.652;-75.770;2022-10-16T07:18:48;100678.60;;;9.92;100.00
69850;BME280;57144;39.652;-75.770;2022-10-16T07:21:20;100686.19;;;9.78;100.00
69850;BME280;57144;39.652;-75.770;2022-10-16T07:23:51;100684.44;;;9.75;100.00
69850;BME280;57144;39.652;-75.770;2022-10-16T07:26:19;100680.36;;;9.70;100.00
69850;BME280;57144;39.652;-75.770;2022-10-16T07:28:50;100673.17;;;9.80;100.00
69850;BME280;57144;39.652;-75.770;2022-10-16T07:31:21;100662.01;;;9.61;100.00
69850;BME280;57144;39.652;-75.770;2022-10-16T07:33:51;100660.30;;;9.81;100.00
69850;BME280;57144;39.652;-75.770;2022-10-16T07:36:21;100662.57;;;9.54;100.00
69850;BME280;57144;39.652;-75.770;2022-10-16T07:38:51;100659.70;;;9.70;100.00
69850;BME280;57144;39.652;-75.770;2022-10-16T07:41:22;100667.11;;;9.70;100.00
69850;BME280;57144;39.652;-75.770;2022-10-16T07:43:53;100664.35;;;9.37;100.00
69850;BME280;57144;39.652;-75.770;2022-10-16T07:46:23;100657.77;;;9.43;100.00
69850;BME280;57144;39.652;-75.770;2022-10-16T07:48:54;100655.89;;;9.37;100.00
69850;BME280;57144;39.652;-75.770;2022-10-16T07:51:26;100658.75;;;9.45;100.00
69850;BME280;57144;39.652;-75.770;2022-10-16T07:53:55;100654.43;;;9.60;100.00
69850;BME280;57144;39.652;-75.770;2022-10-16T07:56:25;100647.45;;;9.27;100.00
69850;BME280;57144;39.652;-75.770;2022-10-16T07:58:56;100643.78;;;9.14;100.00
69850;BME280;57144;39.652;-75.770;2022-10-16T08:01:26;100642.37;;;8.82;100.00
69850;BME280;57144;39.652;-75.770;2022-10-16T08:03:57;100639.49;;;9.38;100.00
69850;BME280;57144;39.652;-75.770;2022-10-16T08:06:27;100636.17;;;9.56;100.00
69850;BME280;57144;39.652;-75.770;2022-10-16T08:08:58;100640.70;;;9.62;100.00
69850;BME280;57144;39.652;-75.770;2022-10-16T08:11:28;100641.39;;;9.63;100.00
69850;BME280;57144;39.652;-75.770;2022-10-16T08:13:59;100642.22;;;9.44;100.00
69850;BME280;57144;39.652;-75.770;2022-10-16T08:16:29;100640.82;;;9.64;100.00
69850;BME280;57144;39.652;-75.770;2022-10-16T08:19:00;100644.74;;;9.57;100.00
69850;BME280;57144;39.652;-75.770;2022-10-16T08:21:30;100647.19;;;9.45;100.00
69850;BME280;57144;39.652;-75.770;2022-10-16T08:24:01;100649.99;;;9.48;100.00
69850;BME280;57144;39.652;-75.770;2022-10-16T08:26:31;100640.55;;;9.69;100.00
69850;BME280;57144;39.652;-75.770;2022-10-16T08:29:02;100639.11;;;9.96;100.00
69850;BME280;57144;39.652;-75.770;2022-10-16T08:31:33;100641.11;;;9.82;100.00
69850;BME280;57144;39.652;-75.770;2022-10-16T08:34:03;100641.23;;;9.85;100.00
69850;BME280;57144;39.652;-75.770;2022-10-16T08:36:34;100642.73;;;9.82;100.00
69850;BME280;57144;39.652;-75.770;2022-10-16T08:39:04;100644.89;;;9.72;100.00
69850;BME280;57144;39.652;-75.770;2022-10-16T08:44:20;100649.53;;;9.65;100.00
69850;BME280;57144;39.652;-75.770;2022-10-16T08:46:42;100650.14;;;9.75;100.00
69850;BME280;57144;39.652;-75.770;2022-10-16T08:49:11;100653.65;;;9.63;100.00
69850;BME280;57144;39.652;-75.770;2022-10-16T08:51:37;100653.26;;;9.76;99.70
69850;BME280;57144;39.652;-75.770;2022-10-16T08:54:18;100655.64;;;9.72;99.41
69850;BME280;57144;39.652;-75.770;2022-10-16T08:56:38;100659.79;;;9.79;98.47
69850;BME280;57144;39.652;-75.770;2022-10-16T08:59:10;100666.41;;;9.87;97.64
69850;BME280;57144;39.652;-75.770;2022-10-16T09:01:41;100674.00;;;9.92;97.39
69850;BME280;57144;39.652;-75.770;2022-10-16T09:06:46;100678.05;;;9.83;97.66
69850;BME280;57144;39.652;-75.770;2022-10-16T09:09:23;100682.81;;;9.49;99.86
69850;BME280;57144;39.652;-75.770;2022-10-16T09:11:48;100683.35;;;9.78;97.68
69850;BME280;57144;39.652;-75.770;2022-10-16T09:14:22;100691.84;;;9.87;96.13
69850;BME280;57144;39.652;-75.770;2022-10-16T09:16:46;100693.07;;;9.76;96.55
69850;BME280;57144;39.652;-75.770;2022-10-16T09:19:17;100692.52;;;10.08;94.70
69850;BME280;57144;39.652;-75.770;2022-10-16T09:21:45;100692.58;;;10.08;93.97
69850;BME280;57144;39.652;-75.770;2022-10-16T09:24:16;100694.21;;;10.16;92.83
69850;BME280;57144;39.652;-75.770;2022-10-16T09:26:44;100695.12;;;9.97;93.98
69850;BME280;57144;39.652;-75.770;2022-10-16T09:29:16;100698.70;;;10.17;92.02
69850;BME280;57144;39.652;-75.770;2022-10-16T09:31:46;100695.65;;;10.09;92.28
69850;BME280;57144;39.652;-75.770;2022-10-16T09:34:26;100694.64;;;10.06;92.58
69850;BME280;57144;39.652;-75.770;2022-10-16T09:36:46;100699.47;;;9.87;93.44
69850;BME280;57144;39.652;-75.770;2022-10-16T09:39:17;100699.86;;;9.89;93.37
69850;BME280;57144;39.652;-75.770;2022-10-16T09:41:47;100703.51;;;9.77;93.13
69850;BME280;57144;39.652;-75.770;2022-10-16T09:44:21;100700.70;;;10.10;91.89
69850;BME280;57144;39.652;-75.770;2022-10-16T09:46:48;100703.08;;;10.10;91.10
69850;BME280;57144;39.652;-75.770;2022-10-16T09:49:22;100701.42;;;10.14;90.81
69850;BME280;57144;39.652;-75.770;2022-10-16T09:51:50;100703.39;;;10.05;91.36
69850;BME280;57144;39.652;-75.770;2022-10-16T09:54:21;100704.48;;;9.89;91.75
69850;BME280;57144;39.652;-75.770;2022-10-16T09:56:50;100706.33;;;9.87;92.30
69850;BME280;57144;39.652;-75.770;2022-10-16T09:59:22;100708.80;;;9.87;92.33
69850;BME280;57144;39.652;-75.770;2022-10-16T10:01:53;100707.83;;;9.93;92.46
69850;BME280;57144;39.652;-75.770;2022-10-16T10:04:24;100706.86;;;9.94;92.53
69850;BME280;57144;39.652;-75.770;2022-10-16T10:06:54;100707.20;;;10.14;91.22
69850;BME280;57144;39.652;-75.770;2022-10-16T10:09:24;100711.49;;;9.86;92.94
69850;BME280;57144;39.652;-75.770;2022-10-16T10:11:55;100714.71;;;10.06;92.22
69850;BME280;57144;39.652;-75.770;2022-10-16T10:14:29;100719.04;;;9.87;92.94
69850;BME280;57144;39.652;-75.770;2022-10-16T10:19:28;100711.64;;;9.87;93.00
69850;BME280;57144;39.652;-75.770;2022-10-16T10:21:55;100714.79;;;9.78;92.92
69850;BME280;57144;39.652;-75.770;2022-10-16T10:24:26;100714.66;;;9.95;92.01
69850;BME280;57144;39.652;-75.770;2022-10-16T10:27:03;100718.89;;;9.84;92.51
69850;BME280;57144;39.652;-75.770;2022-10-16T10:29:36;100717.82;;;9.93;92.32
69850;BME280;57144;39.652;-75.770;2022-10-16T10:32:06;100721.93;;;9.90;92.35
69850;BME280;57144;39.652;-75.770;2022-10-16T10:34:38;100718.93;;;9.71;92.64
69850;BME280;57144;39.652;-75.770;2022-10-16T10:37:02;100716.48;;;9.54;93.63
69850;BME280;57144;39.652;-75.770;2022-10-16T10:39:34;100716.67;;;9.68;92.77
69850;BME280;57144;39.652;-75.770;2022-10-16T10:42:09;100720.57;;;9.07;95.64
69850;BME280;57144;39.652;-75.770;2022-10-16T10:44:43;100716.49;;;9.64;93.28
69850;BME280;57144;39.652;-75.770;2022-10-16T10:47:08;100725.09;;;9.46;93.87
69850;BME280;57144;39.652;-75.770;2022-10-16T10:49:43;100721.16;;;9.43;93.13
69850;BME280;57144;39.652;-75.770;2022-10-16T10:52:12;100721.84;;;9.39;93.67
69850;BME280;57144;39.652;-75.770;2022-10-16T10:54:36;100722.69;;;9.42;93.75
69850;BME280;57144;39.652;-75.770;2022-10-16T10:57:09;100723.85;;;9.09;95.43
69850;BME280;57144;39.652;-75.770;2022-10-16T10:59:42;100726.98;;;9.43;93.76
69850;BME280;57144;39.652;-75.770;2022-10-16T11:02:12;100727.77;;;9.39;94.10
69850;BME280;57144;39.652;-75.770;2022-10-16T11:04:45;100731.10;;;9.24;95.03
69850;BME280;57144;39.652;-75.770;2022-10-16T11:07:07;100729.26;;;8.94;95.86
69850;BME280;57144;39.652;-75.770;2022-10-16T11:09:38;100738.02;;;9.21;95.01
69850;BME280;57144;39.652;-75.770;2022-10-16T11:12:08;100739.32;;;9.13;95.54
69850;BME280;57144;39.652;-75.770;2022-10-16T11:14:42;100738.00;;;9.35;94.18
69850;BME280;57144;39.652;-75.770;2022-10-16T11:17:10;100741.27;;;9.20;94.75
69850;BME280;57144;39.652;-75.770;2022-10-16T11:19:41;100738.14;;;9.29;93.96
69850;BME280;57144;39.652;-75.770;2022-10-16T11:22:14;100744.66;;;9.39;93.51
69850;BME280;57144;39.652;-75.770;2022-10-16T11:24:42;100746.98;;;9.33;94.00
69850;BME280;57144;39.652;-75.770;2022-10-16T11:27:12;100750.16;;;8.98;94.64
69850;BME280;57144;39.652;-75.770;2022-10-16T11:29:46;100752.00;;;9.30;93.14
69850;BME280;57144;39.652;-75.770;2022-10-16T11:32:19;100755.60;;;9.34;91.72
69850;BME280;57144;39.652;-75.770;2022-10-16T11:34:47;100761.42;;;9.38;91.76
69850;BME280;57144;39.652;-75.770;2022-10-16T11:37:14;100760.09;;;9.24;92.07
69850;BME280;57144;39.652;-75.770;2022-10-16T11:39:43;100761.06;;;9.41;90.55
69850;BME280;57144;39.652;-75.770;2022-10-16T11:42:19;100761.86;;;9.37;90.36
69850;BME280;57144;39.652;-75.770;2022-10-16T11:44:51;100765.63;;;9.66;88.52
69850;BME280;57144;39.652;-75.770;2022-10-16T11:47:24;100771.57;;;9.57;88.05
69850;BME280;57144;39.652;-75.770;2022-10-16T11:49:46;100776.06;;;9.78;87.80
69850;BME280;57144;39.652;-75.770;2022-10-16T11:52:20;100778.34;;;9.50;88.50
69850;BME280;57144;39.652;-75.770;2022-10-16T11:54:49;100776.55;;;9.74;87.86
69850;BME280;57144;39.652;-75.770;2022-10-16T11:57:20;100772.70;;;9.64;88.72
69850;BME280;57144;39.652;-75.770;2022-10-16T11:59:48;100782.12;;;9.72;87.11
69850;BME280;57144;39.652;-75.770;2022-10-16T12:02:26;100785.64;;;9.82;86.13
69850;BME280;57144;39.652;-75.770;2022-10-16T12:04:53;100790.35;;;9.64;85.88
69850;BME280;57144;39.652;-75.770;2022-10-16T12:07:21;100787.01;;;9.31;87.38
69850;BME280;57144;39.652;-75.770;2022-10-16T12:09:48;100787.31;;;9.52;87.52
69850;BME280;57144;39.652;-75.770;2022-10-16T12:12:24;100790.35;;;9.87;85.91
69850;BME280;57144;39.652;-75.770;2022-10-16T12:17:26;100790.93;;;10.02;84.36
69850;BME280;57144;39.652;-75.770;2022-10-16T12:19:59;100789.37;;;10.15;83.51
69850;BME280;57144;39.652;-75.770;2022-10-16T12:22:21;100793.57;;;9.76;84.87
69850;BME280;57144;39.652;-75.770;2022-10-16T12:24:52;100793.68;;;9.74;84.25
69850;BME280;57144;39.652;-75.770;2022-10-16T12:27:26;100799.65;;;10.03;82.24
69850;BME280;57144;39.652;-75.770;2022-10-16T12:29:57;100806.40;;;9.84;82.36
69850;BME280;57144;39.652;-75.770;2022-10-16T12:32:29;100804.73;;;10.21;79.52
69850;BME280;57144;39.652;-75.770;2022-10-16T12:34:54;100806.32;;;10.20;80.45
69850;BME280;57144;39.652;-75.770;2022-10-16T12:37:26;100801.99;;;10.35;77.99
69850;BME280;57144;39.652;-75.770;2022-10-16T12:39:56;100803.43;;;9.86;79.94
69850;BME280;57144;39.652;-75.770;2022-10-16T12:42:32;100800.73;;;10.34;79.56
69850;BME280;57144;39.652;-75.770;2022-10-16T12:44:56;100803.28;;;10.36;78.60
69850;BME280;57144;39.652;-75.770;2022-10-16T12:49:57;100803.97;;;10.79;78.04
69850;BME280;57144;39.652;-75.770;2022-10-16T12:52:31;100811.36;;;10.45;79.15
69850;BME280;57144;39.652;-75.770;2022-10-16T12:54:59;100808.44;;;10.92;76.51
69850;BME280;57144;39.652;-75.770;2022-10-16T12:57:38;100804.19;;;10.75;76.72
69850;BME280;57144;39.652;-75.770;2022-10-16T13:00:03;100806.50;;;11.08;77.17
69850;BME280;57144;39.652;-75.770;2022-10-16T13:02:41;100807.49;;;11.20;76.31